sensor_id;sensor_type;location;lat;lon;timestamp;pressure;altitude;pressure_sealevel;temperature;humidity
49825;BME280;35714;55.708;37.478;2023-04-05T00:00:38;99611.97;;;8.64;64.51
49825;BME280;35714;55.708;37.478;2023-04-05T00:03:03;99616.78;;;8.62;64.42
49825;BME280;35714;55.708;37.478;2023-04-05T00:05:30;99606.41;;;8.59;64.34
49825;BME280;35714;55.708;37.478;2023-04-05T00:08:04;99611.38;;;8.62;64.64
49825;BME280;35714;55.708;37.478;2023-04-05T00:10:38;99606.41;;;8.59;64.51
49825;BME280;35714;55.708;37.478;2023-04-05T00:13:04;99601.41;;;8.56;64.81
49825;BME280;35714;55.708;37.478;2023-04-05T00:15:30;99607.03;;;8.55;64.90
49825;BME280;35714;55.708;37.478;2023-04-05T00:17:58;99607.25;;;8.53;64.88
49825;BME280;35714;55.708;37.478;2023-04-05T00:20:24;99610.41;;;8.50;64.76
49825;BME280;35714;55.708;37.478;2023-04-05T00:22:50;99602.34;;;8.43;64.95
49825;BME280;35714;55.708;37.478;2023-04-05T00:25:16;99609.59;;;8.43;64.94
49825;BME280;35714;55.708;37.478;2023-04-05T00:27:43;99605.66;;;8.39;65.01
49825;BME280;35714;55.708;37.478;2023-04-05T00:30:08;99605.25;;;8.35;65.02
49825;BME280;35714;55.708;37.478;2023-04-05T00:32:34;99596.53;;;8.33;65.19
49825;BME280;35714;55.708;37.478;2023-04-05T00:35:00;99606.94;;;8.29;65.61
49825;BME280;35714;55.708;37.478;2023-04-05T00:37:26;99606.34;;;8.27;65.38
49825;BME280;35714;55.708;37.478;2023-04-05T00:39:52;99601.97;;;8.26;65.38
49825;BME280;35714;55.708;37.478;2023-04-05T00:42:18;99606.16;;;8.22;65.46
49825;BME280;35714;55.708;37.478;2023-04-05T00:44:44;99608.22;;;8.20;65.67
49825;BME280;35714;55.708;37.478;2023-04-05T00:47:10;99612.00;;;8.19;65.85
49825;BME280;35714;55.708;37.478;2023-04-05T00:49:36;99608.66;;;8.17;65.81
49825;BME280;35714;55.708;37.478;2023-04-05T00:52:03;99605.34;;;8.15;66.10
49825;BME280;35714;55.708;37.478;2023-04-05T00:54:29;99609.72;;;8.16;65.85
49825;BME280;35714;55.708;37.478;2023-04-05T00:56:58;99616.75;;;8.17;66.08
49825;BME280;35714;55.708;37.478;2023-04-05T00:59:25;99616.59;;;8.12;65.85
49825;BME280;35714;55.708;37.478;2023-04-05T01:02:05;99620.31;;;8.11;66.23
49825;BME280;35714;55.708;37.478;2023-04-05T01:04:33;99613.06;;;8.05;66.04
49825;BME280;35714;55.708;37.478;2023-04-05T01:07:08;99622.84;;;8.06;66.14
49825;BME280;35714;55.708;37.478;2023-04-05T01:09:56;99623.88;;;8.05;66.43
49825;BME280;35714;55.708;37.478;2023-04-05T01:12:24;99626.19;;;8.01;66.15
49825;BME280;35714;55.708;37.478;2023-04-05T01:14:53;99634.50;;;8.00;66.63
49825;BME280;35714;55.708;37.478;2023-04-05T01:17:21;99624.31;;;7.95;66.60
49825;BME280;35714;55.708;37.478;2023-04-05T01:20:11;99617.06;;;7.95;67.01
49825;BME280;35714;55.708;37.478;2023-04-05T01:22:52;99622.06;;;7.92;66.64
49825;BME280;35714;55.708;37.478;2023-04-05T01:31:06;99621.66;;;7.88;67.13
49825;BME280;35714;55.708;37.478;2023-04-05T01:36:23;99614.78;;;7.86;67.07
49825;BME280;35714;55.708;37.478;2023-04-05T01:38:53;99629.56;;;7.83;66.87
49825;BME280;35714;55.708;37.478;2023-04-05T01:41:20;99620.22;;;7.79;66.92
49825;BME280;35714;55.708;37.478;2023-04-05T01:43:46;99619.41;;;7.79;66.84
49825;BME280;35714;55.708;37.478;2023-04-05T01:46:12;99622.31;;;7.77;67.05
49825;BME280;35714;55.708;37.478;2023-04-05T01:48:37;99625.00;;;7.77;67.00
49825;BME280;35714;55.708;37.478;2023-04-05T01:51:03;99621.72;;;7.75;67.17
49825;BME280;35714;55.708;37.478;2023-04-05T01:53:29;99620.03;;;7.74;67.01
49825;BME280;35714;55.708;37.478;2023-04-05T01:56:01;99622.75;;;7.74;67.38
49825;BME280;35714;55.708;37.478;2023-04-05T01:58:27;99613.41;;;7.70;67.15
49825;BME280;35714;55.708;37.478;2023-04-05T02:00:54;99620.06;;;7.67;67.41
49825;BME280;35714;55.708;37.478;2023-04-05T02:03:21;99624.59;;;7.67;67.52
49825;BME280;35714;55.708;37.478;2023-04-05T02:05:47;99628.38;;;7.66;67.43
49825;BME280;35714;55.708;37.478;2023-04-05T02:08:12;99625.03;;;7.64;67.11
49825;BME280;35714;55.708;37.478;2023-04-05T02:10:39;99628.78;;;7.63;67.28
49825;BME280;35714;55.708;37.478;2023-04-05T02:13:05;99634.59;;;7.59;67.49
49825;BME280;35714;55.708;37.478;2023-04-05T02:15:31;99634.59;;;7.59;67.37
49825;BME280;35714;55.708;37.478;2023-04-05T02:17:59;99642.91;;;7.58;67.39
49825;BME280;35714;55.708;37.478;2023-04-05T02:20:28;99634.38;;;7.54;67.43
49825;BME280;35714;55.708;37.478;2023-04-05T02:22:55;99649.53;;;7.55;67.59
49825;BME280;35714;55.708;37.478;2023-04-05T02:25:21;99643.53;;;7.53;67.57
49825;BME280;35714;55.708;37.478;2023-04-05T02:27:47;99640.84;;;7.53;67.71
49825;BME280;35714;55.708;37.478;2023-04-05T02:30:13;99647.06;;;7.47;67.58
49825;BME280;35714;55.708;37.478;2023-04-05T02:32:41;99649.16;;;7.45;67.33
49825;BME280;35714;55.708;37.478;2023-04-05T02:35:10;99645.00;;;7.43;67.53
49825;BME280;35714;55.708;37.478;2023-04-05T02:37:37;99653.28;;;7.41;67.74
49825;BME280;35714;55.708;37.478;2023-04-05T02:40:06;99654.75;;;7.37;67.93
49825;BME280;35714;55.708;37.478;2023-04-05T02:42:38;99644.78;;;7.31;67.54
49825;BME280;35714;55.708;37.478;2023-04-05T02:45:04;99645.84;;;7.30;67.85
49825;BME280;35714;55.708;37.478;2023-04-05T02:47:30;99651.66;;;7.27;67.90
49825;BME280;35714;55.708;37.478;2023-04-05T02:49:58;99648.31;;;7.25;68.02
49825;BME280;35714;55.708;37.478;2023-04-05T02:52:28;99655.78;;;7.22;67.76
49825;BME280;35714;55.708;37.478;2023-04-05T02:54:54;99658.69;;;7.21;67.79
49825;BME280;35714;55.708;37.478;2023-04-05T02:57:25;99661.59;;;7.19;67.98
49825;BME280;35714;55.708;37.478;2023-04-05T03:00:02;99662.84;;;7.17;67.74
49825;BME280;35714;55.708;37.478;2023-04-05T03:02:30;99665.34;;;7.18;67.99
49825;BME280;35714;55.708;37.478;2023-04-05T03:04:56;99665.34;;;7.18;67.89
49825;BME280;35714;55.708;37.478;2023-04-05T03:07:22;99662.00;;;7.16;67.92
49825;BME280;35714;55.708;37.478;2023-04-05T03:09:50;99670.75;;;7.18;67.99
49825;BME280;35714;55.708;37.478;2023-04-05T03:12:17;99672.38;;;7.19;68.02
49825;BME280;35714;55.708;37.478;2023-04-05T03:14:44;99665.34;;;7.18;67.87
49825;BME280;35714;55.708;37.478;2023-04-05T03:17:13;99674.66;;;7.22;67.98
49825;BME280;35714;55.708;37.478;2023-04-05T03:19:43;99676.94;;;7.26;67.81
49825;BME280;35714;55.708;37.478;2023-04-05T03:22:17;99675.72;;;7.28;67.42
49825;BME280;35714;55.708;37.478;2023-04-05T03:24:42;99670.94;;;7.30;67.25
49825;BME280;35714;55.708;37.478;2023-04-05T03:27:11;99667.81;;;7.33;67.29
49825;BME280;35714;55.708;37.478;2023-04-05T03:30:00;99679.66;;;7.39;67.03
49825;BME280;35714;55.708;37.478;2023-04-05T03:32:26;99678.19;;;7.43;66.79
49825;BME280;35714;55.708;37.478;2023-04-05T03:35:03;99681.53;;;7.45;66.58
49825;BME280;35714;55.708;37.478;2023-04-05T03:37:29;99681.94;;;7.49;66.79
49825;BME280;35714;55.708;37.478;2023-04-05T03:39:59;99689.00;;;7.56;66.38
49825;BME280;35714;55.708;37.478;2023-04-05T03:42:25;99692.72;;;7.62;66.40
49825;BME280;35714;55.708;37.478;2023-04-05T03:44:52;99691.06;;;7.68;66.23
49825;BME280;35714;55.708;37.478;2023-04-05T03:47:18;99695.81;;;7.72;65.98
49825;BME280;35714;55.708;37.478;2023-04-05T03:49:44;99701.00;;;7.81;65.74
49825;BME280;35714;55.708;37.478;2023-04-05T03:52:10;99701.19;;;7.86;65.56
49825;BME280;35714;55.708;37.478;2023-04-05T03:54:40;99705.94;;;7.90;65.01
49825;BME280;35714;55.708;37.478;2023-04-05T03:57:06;99709.09;;;7.94;64.84
49825;BME280;35714;55.708;37.478;2023-04-05T03:59:32;99703.06;;;7.99;64.69
49825;BME280;35714;55.708;37.478;2023-04-05T04:02:03;99697.66;;;7.99;64.57
49825;BME280;35714;55.708;37.478;2023-04-05T04:04:28;99710.06;;;8.06;64.37
49825;BME280;35714;55.708;37.478;2023-04-05T04:06:55;99708.84;;;8.09;64.14
49825;BME280;35714;55.708;37.478;2023-04-05T04:09:23;99711.28;;;8.17;63.74
49825;BME280;35714;55.708;37.478;2023-04-05T04:11:49;99717.94;;;8.21;63.60
49825;BME280;35714;55.708;37.478;2023-04-05T04:14:18;99714.00;;;8.24;63.29
49825;BME280;35714;55.708;37.478;2023-04-05T04:17:02;99719.38;;;8.30;63.28
49825;BME280;35714;55.708;37.478;2023-04-05T04:19:47;99724.97;;;8.36;62.90
49825;BME280;35714;55.708;37.478;2023-04-05T04:22:31;99714.16;;;8.36;62.90
49825;BME280;35714;55.708;37.478;2023-04-05T04:25:30;99733.69;;;8.51;62.51
49825;BME280;35714;55.708;37.478;2023-04-05T04:28:20;99727.41;;;8.57;62.04
49825;BME280;35714;55.708;37.478;2023-04-05T04:30:55;99730.25;;;8.69;61.87
49825;BME280;35714;55.708;37.478;2023-04-05T04:33:32;99721.06;;;8.77;61.44
49825;BME280;35714;55.708;37.478;2023-04-05T04:36:25;99721.28;;;8.82;61.22
49825;BME280;35714;55.708;37.478;2023-04-05T04:39:28;99733.03;;;8.94;60.72
49825;BME280;35714;55.708;37.478;2023-04-05T04:42:19;99736.56;;;9.01;60.36
49825;BME280;35714;55.708;37.478;2023-04-05T04:44:57;99735.69;;;9.08;60.10
49825;BME280;35714;55.708;37.478;2023-04-05T04:47:45;99734.16;;;9.18;59.95
49825;BME280;35714;55.708;37.478;2023-04-05T04:50:15;99736.59;;;9.27;59.87
49825;BME280;35714;55.708;37.478;2023-04-05T04:52:41;99743.19;;;9.37;59.44
49825;BME280;35714;55.708;37.478;2023-04-05T04:55:07;99741.44;;;9.50;59.34
49825;BME280;35714;55.708;37.478;2023-04-05T04:57:33;99745.53;;;9.59;58.90
49825;BME280;35714;55.708;37.478;2023-04-05T04:59:59;99747.38;;;9.65;58.52
49825;BME280;35714;55.708;37.478;2023-04-05T05:02:25;99748.50;;;9.76;58.48
49825;BME280;35714;55.708;37.478;2023-04-05T05:04:51;99749.06;;;9.85;58.11
49825;BME280;35714;55.708;37.478;2023-04-05T05:07:18;99749.38;;;9.95;57.93
49825;BME280;35714;55.708;37.478;2023-04-05T05:09:43;99755.47;;;10.09;57.71
49825;BME280;35714;55.708;37.478;2023-04-05T05:12:10;99754.53;;;10.22;57.24
49825;BME280;35714;55.708;37.478;2023-04-05T05:14:36;99765.25;;;10.35;57.13
49825;BME280;35714;55.708;37.478;2023-04-05T05:17:01;99759.72;;;10.49;56.72
49825;BME280;35714;55.708;37.478;2023-04-05T05:19:29;99767.53;;;10.57;56.07
49825;BME280;35714;55.708;37.478;2023-04-05T05:21:57;99766.19;;;10.66;55.41
49825;BME280;35714;55.708;37.478;2023-04-05T05:24:22;99769.03;;;10.71;55.18
49825;BME280;35714;55.708;37.478;2023-04-05T05:26:49;99774.97;;;10.80;55.15
49825;BME280;35714;55.708;37.478;2023-04-05T05:29:16;99773.81;;;10.88;54.81
49825;BME280;35714;55.708;37.478;2023-04-05T05:31:44;99770.34;;;10.99;54.46
49825;BME280;35714;55.708;37.478;2023-04-05T05:34:09;99774.03;;;11.05;54.15
49825;BME280;35714;55.708;37.478;2023-04-05T05:36:37;99778.53;;;11.11;53.74
49825;BME280;35714;55.708;37.478;2023-04-05T05:39:03;99768.97;;;11.08;53.29
49825;BME280;35714;55.708;37.478;2023-04-05T05:41:32;99766.16;;;11.15;53.21
49825;BME280;35714;55.708;37.478;2023-04-05T05:44:01;99773.22;;;11.16;52.95
49825;BME280;35714;55.708;37.478;2023-04-05T05:46:30;99774.56;;;11.25;52.96
49825;BME280;35714;55.708;37.478;2023-04-05T05:49:45;99768.84;;;11.45;52.40
49825;BME280;35714;55.708;37.478;2023-04-05T05:52:23;99772.88;;;11.54;52.26
49825;BME280;35714;55.708;37.478;2023-04-05T05:54:52;99766.06;;;11.64;51.80
49825;BME280;35714;55.708;37.478;2023-04-05T05:57:21;99771.03;;;11.67;51.17
49825;BME280;35714;55.708;37.478;2023-04-05T05:59:47;99772.09;;;11.66;51.45
49825;BME280;35714;55.708;37.478;2023-04-05T06:02:13;99757.91;;;11.64;51.60
49825;BME280;35714;55.708;37.478;2023-04-05T06:04:41;99780.25;;;11.89;51.33
49825;BME280;35714;55.708;37.478;2023-04-05T06:07:08;99779.13;;;11.97;50.92
49825;BME280;35714;55.708;37.478;2023-04-05T06:09:33;99774.06;;;12.13;50.79
49825;BME280;35714;55.708;37.478;2023-04-05T06:12:00;99779.13;;;12.33;50.49
49825;BME280;35714;55.708;37.478;2023-04-05T06:14:26;99784.06;;;12.59;50.30
49825;BME280;35714;55.708;37.478;2023-04-05T06:16:57;99786.13;;;12.81;49.66
49825;BME280;35714;55.708;37.478;2023-04-05T06:19:22;99788.50;;;12.89;49.32
49825;BME280;35714;55.708;37.478;2023-04-05T06:21:48;99795.09;;;12.93;48.81
49825;BME280;35714;55.708;37.478;2023-04-05T06:24:14;99786.56;;;13.02;48.82
49825;BME280;35714;55.708;37.478;2023-04-05T06:26:39;99790.25;;;13.24;48.73
49825;BME280;35714;55.708;37.478;2023-04-05T06:29:05;99794.44;;;13.44;47.98
49825;BME280;35714;55.708;37.478;2023-04-05T06:31:33;99791.50;;;13.62;47.73
49825;BME280;35714;55.708;37.478;2023-04-05T06:33:59;99794.16;;;13.91;47.32
49825;BME280;35714;55.708;37.478;2023-04-05T06:36:25;99792.31;;;14.31;46.78
49825;BME280;35714;55.708;37.478;2023-04-05T06:38:51;99796.16;;;14.69;46.22
49825;BME280;35714;55.708;37.478;2023-04-05T06:41:17;99810.00;;;15.06;45.26
49825;BME280;35714;55.708;37.478;2023-04-05T06:43:43;99800.47;;;15.36;44.46
49825;BME280;35714;55.708;37.478;2023-04-05T06:46:10;99803.50;;;15.67;43.80
49825;BME280;35714;55.708;37.478;2023-04-05T06:48:37;99807.19;;;16.10;43.28
49825;BME280;35714;55.708;37.478;2023-04-05T06:51:04;99812.41;;;16.54;42.08
49825;BME280;35714;55.708;37.478;2023-04-05T06:53:30;99806.59;;;16.99;41.61
49825;BME280;35714;55.708;37.478;2023-04-05T06:55:57;99805.63;;;17.46;40.63
49825;BME280;35714;55.708;37.478;2023-04-05T06:58:25;99804.91;;;17.97;40.07
49825;BME280;35714;55.708;37.478;2023-04-05T07:00:52;99805.66;;;18.49;38.88
49825;BME280;35714;55.708;37.478;2023-04-05T07:03:18;99806.13;;;18.87;38.09
49825;BME280;35714;55.708;37.478;2023-04-05T07:05:51;99811.47;;;19.18;35.06
49825;BME280;35714;55.708;37.478;2023-04-05T07:08:19;99804.91;;;19.14;36.23
49825;BME280;35714;55.708;37.478;2023-04-05T07:10:45;99814.78;;;19.15;35.85
49825;BME280;35714;55.708;37.478;2023-04-05T07:13:11;99810.91;;;19.21;35.66
49825;BME280;35714;55.708;37.478;2023-04-05T07:15:36;99813.00;;;19.39;35.79
49825;BME280;35714;55.708;37.478;2023-04-05T07:18:02;99810.16;;;19.55;35.00
49825;BME280;35714;55.708;37.478;2023-04-05T07:20:28;99802.88;;;19.74;34.53
49825;BME280;35714;55.708;37.478;2023-04-05T07:22:55;99811.38;;;19.83;34.17
49825;BME280;35714;55.708;37.478;2023-04-05T07:25:22;99814.88;;;19.94;34.17
49825;BME280;35714;55.708;37.478;2023-04-05T07:27:47;99812.50;;;20.11;33.84
49825;BME280;35714;55.708;37.478;2023-04-05T07:30:13;99812.16;;;20.18;33.21
49825;BME280;35714;55.708;37.478;2023-04-05T07:32:38;99818.03;;;20.11;33.35
49825;BME280;35714;55.708;37.478;2023-04-05T07:35:04;99816.41;;;20.05;33.04
49825;BME280;35714;55.708;37.478;2023-04-05T07:37:31;99820.81;;;20.06;33.60
49825;BME280;35714;55.708;37.478;2023-04-05T07:39:56;99830.34;;;20.19;33.59
49825;BME280;35714;55.708;37.478;2023-04-05T07:42:23;99820.28;;;20.33;32.58
49825;BME280;35714;55.708;37.478;2023-04-05T07:44:48;99816.09;;;20.41;32.99
49825;BME280;35714;55.708;37.478;2023-04-05T07:47:14;99829.56;;;20.43;32.26
49825;BME280;35714;55.708;37.478;2023-04-05T07:49:40;99821.00;;;20.44;32.10
49825;BME280;35714;55.708;37.478;2023-04-05T07:52:05;99817.63;;;20.52;31.89
49825;BME280;35714;55.708;37.478;2023-04-05T07:54:31;99818.59;;;20.67;31.74
49825;BME280;35714;55.708;37.478;2023-04-05T07:57:02;99811.22;;;20.86;31.98
49825;BME280;35714;55.708;37.478;2023-04-05T07:59:28;99819.16;;;21.12;31.34
49825;BME280;35714;55.708;37.478;2023-04-05T08:01:54;99817.78;;;21.34;30.87
49825;BME280;35714;55.708;37.478;2023-04-05T08:04:19;99817.00;;;21.52;30.77
49825;BME280;35714;55.708;37.478;2023-04-05T08:06:46;99825.69;;;21.78;30.06
49825;BME280;35714;55.708;37.478;2023-04-05T08:09:12;99822.13;;;22.11;30.03
49825;BME280;35714;55.708;37.478;2023-04-05T08:11:38;99818.78;;;22.14;28.13
49825;BME280;35714;55.708;37.478;2023-04-05T08:14:03;99827.78;;;21.49;28.79
49825;BME280;35714;55.708;37.478;2023-04-05T08:16:30;99831.16;;;21.02;29.58
49825;BME280;35714;55.708;37.478;2023-04-05T08:18:56;99822.22;;;21.11;30.68
49825;BME280;35714;55.708;37.478;2023-04-05T08:24:15;99826.00;;;21.77;28.34
49825;BME280;35714;55.708;37.478;2023-04-05T08:26:41;99822.56;;;21.66;29.11
49825;BME280;35714;55.708;37.478;2023-04-05T08:29:08;99830.00;;;21.85;29.50
49825;BME280;35714;55.708;37.478;2023-04-05T08:31:34;99818.31;;;22.07;28.97
49825;BME280;35714;55.708;37.478;2023-04-05T08:33:59;99833.09;;;22.49;28.63
49825;BME280;35714;55.708;37.478;2023-04-05T08:36:25;99829.16;;;22.83;28.34
49825;BME280;35714;55.708;37.478;2023-04-05T08:38:51;99835.38;;;23.02;27.50
49825;BME280;35714;55.708;37.478;2023-04-05T08:41:18;99833.34;;;23.22;27.63
49825;BME280;35714;55.708;37.478;2023-04-05T08:43:58;99831.59;;;23.63;26.63
49825;BME280;35714;55.708;37.478;2023-04-05T08:46:29;99835.56;;;23.70;26.99
49825;BME280;35714;55.708;37.478;2023-04-05T08:48:56;99836.31;;;23.62;26.89
49825;BME280;35714;55.708;37.478;2023-04-05T08:51:26;99821.84;;;23.65;26.75
49825;BME280;35714;55.708;37.478;2023-04-05T08:53:53;99827.69;;;24.00;26.97
49825;BME280;35714;55.708;37.478;2023-04-05T08:56:25;99834.22;;;24.27;26.20
49825;BME280;35714;55.708;37.478;2023-04-05T08:58:59;99823.44;;;24.48;25.46
49825;BME280;35714;55.708;37.478;2023-04-05T09:01:28;99833.19;;;24.77;25.64
49825;BME280;35714;55.708;37.478;2023-04-05T09:03:56;99826.81;;;24.67;24.95
49825;BME280;35714;55.708;37.478;2023-04-05T09:06:24;99826.53;;;24.46;25.32
49825;BME280;35714;55.708;37.478;2023-04-05T09:08:52;99835.50;;;24.52;25.43
49825;BME280;35714;55.708;37.478;2023-04-05T09:11:19;99836.22;;;24.58;25.15
49825;BME280;35714;55.708;37.478;2023-04-05T09:13:45;99844.66;;;24.84;25.13
49825;BME280;35714;55.708;37.478;2023-04-05T09:16:13;99839.53;;;25.17;24.52
49825;BME280;35714;55.708;37.478;2023-04-05T09:18:40;99842.09;;;25.63;24.47
49825;BME280;35714;55.708;37.478;2023-04-05T09:21:06;99840.78;;;25.86;24.00
49825;BME280;35714;55.708;37.478;2023-04-05T09:23:36;99839.63;;;25.87;23.35
49825;BME280;35714;55.708;37.478;2023-04-05T09:26:24;99833.25;;;25.87;23.20
49825;BME280;35714;55.708;37.478;2023-04-05T09:28:53;99831.94;;;26.19;23.71
49825;BME280;35714;55.708;37.478;2023-04-05T09:31:33;99830.59;;;26.90;22.94
49825;BME280;35714;55.708;37.478;2023-04-05T09:34:03;99827.59;;;27.55;22.55
49825;BME280;35714;55.708;37.478;2023-04-05T09:36:29;99830.53;;;28.13;21.66
49825;BME280;35714;55.708;37.478;2023-04-05T09:39:07;99833.53;;;28.41;20.69
49825;BME280;35714;55.708;37.478;2023-04-05T09:41:34;99832.78;;;28.78;20.58
49825;BME280;35714;55.708;37.478;2023-04-05T09:44:00;99832.66;;;29.11;19.50
49825;BME280;35714;55.708;37.478;2023-04-05T09:46:33;99824.06;;;29.04;19.91
49825;BME280;35714;55.708;37.478;2023-04-05T09:49:02;99838.22;;;29.48;20.02
49825;BME280;35714;55.708;37.478;2023-04-05T09:51:35;99835.56;;;29.93;19.02
49825;BME280;35714;55.708;37.478;2023-04-05T09:54:07;99844.38;;;30.23;18.24
49825;BME280;35714;55.708;37.478;2023-04-05T09:56:35;99835.63;;;30.24;18.59
49825;BME280;35714;55.708;37.478;2023-04-05T09:59:06;99833.00;;;30.16;18.51
49825;BME280;35714;55.708;37.478;2023-04-05T10:01:32;99837.56;;;30.36;18.47
49825;BME280;35714;55.708;37.478;2023-04-05T10:03:58;99832.38;;;30.67;18.26
49825;BME280;35714;55.708;37.478;2023-04-05T10:06:38;99826.16;;;30.89;18.62
49825;BME280;35714;55.708;37.478;2023-04-05T10:09:06;99827.75;;;30.90;18.28
49825;BME280;35714;55.708;37.478;2023-04-05T10:11:32;99811.84;;;30.94;18.13
49825;BME280;35714;55.708;37.478;2023-04-05T10:14:05;99831.09;;;31.12;17.39
49825;BME280;35714;55.708;37.478;2023-04-05T10:19:28;99831.47;;;31.46;16.91
49825;BME280;35714;55.708;37.478;2023-04-05T10:21:59;99829.53;;;31.30;16.80
49825;BME280;35714;55.708;37.478;2023-04-05T10:24:32;99830.75;;;30.98;17.11
49825;BME280;35714;55.708;37.478;2023-04-05T10:27:04;99836.25;;;31.10;17.54
49825;BME280;35714;55.708;37.478;2023-04-05T10:29:38;99834.53;;;31.41;17.30
49825;BME280;35714;55.708;37.478;2023-04-05T10:32:14;99834.38;;;31.69;16.93
49825;BME280;35714;55.708;37.478;2023-04-05T10:34:56;99829.38;;;31.98;16.30
49825;BME280;35714;55.708;37.478;2023-04-05T10:37:33;99832.13;;;32.14;16.16
49825;BME280;35714;55.708;37.478;2023-04-05T10:40:02;99824.41;;;32.30;16.78
49825;BME280;35714;55.708;37.478;2023-04-05T10:42:39;99830.03;;;32.53;15.79
49825;BME280;35714;55.708;37.478;2023-04-05T10:45:07;99832.53;;;32.35;15.78
49825;BME280;35714;55.708;37.478;2023-04-05T10:47:39;99834.84;;;31.91;16.43
49825;BME280;35714;55.708;37.478;2023-04-05T10:50:08;99829.53;;;31.30;16.86
49825;BME280;35714;55.708;37.478;2023-04-05T10:52:38;99828.03;;;30.09;17.25
49825;BME280;35714;55.708;37.478;2023-04-05T10:55:05;99828.25;;;29.35;18.25
49825;BME280;35714;55.708;37.478;2023-04-05T10:57:33;99826.72;;;29.50;18.39
49825;BME280;35714;55.708;37.478;2023-04-05T11:00:00;99822.25;;;30.02;18.32
49825;BME280;35714;55.708;37.478;2023-04-05T11:02:27;99826.41;;;30.52;17.94
49825;BME280;35714;55.708;37.478;2023-04-05T11:04:54;99822.00;;;30.83;17.46
49825;BME280;35714;55.708;37.478;2023-04-05T11:07:21;99823.28;;;31.02;17.25
49825;BME280;35714;55.708;37.478;2023-04-05T11:12:19;99814.97;;;31.25;17.33
49825;BME280;35714;55.708;37.478;2023-04-05T11:15:27;99817.72;;;31.21;16.60
49825;BME280;35714;55.708;37.478;2023-04-05T11:18:20;99821.97;;;31.15;17.17
49825;BME280;35714;55.708;37.478;2023-04-05T11:20:50;99820.63;;;31.09;17.20
49825;BME280;35714;55.708;37.478;2023-04-05T11:23:18;99817.47;;;30.94;17.12
49825;BME280;35714;55.708;37.478;2023-04-05T11:28:23;99809.88;;;30.79;17.28
49825;BME280;35714;55.708;37.478;2023-04-05T11:30:50;99808.72;;;30.80;17.92
49825;BME280;35714;55.708;37.478;2023-04-05T11:36:01;99800.59;;;30.75;17.82
49825;BME280;35714;55.708;37.478;2023-04-05T11:38:27;99806.28;;;30.79;17.49
49825;BME280;35714;55.708;37.478;2023-04-05T11:41:04;99807.19;;;30.67;17.27
49825;BME280;35714;55.708;37.478;2023-04-05T11:43:30;99798.63;;;30.59;17.62
49825;BME280;35714;55.708;37.478;2023-04-05T11:46:01;99803.41;;;30.75;17.15
49825;BME280;35714;55.708;37.478;2023-04-05T11:48:28;99799.75;;;30.90;17.29
49825;BME280;35714;55.708;37.478;2023-04-05T11:50:56;99793.63;;;31.01;17.26
49825;BME280;35714;55.708;37.478;2023-04-05T11:53:22;99785.59;;;30.99;16.85
49825;BME280;35714;55.708;37.478;2023-04-05T11:55:50;99788.09;;;31.04;16.82
49825;BME280;35714;55.708;37.478;2023-04-05T11:58:17;99791.09;;;31.11;16.72
49825;BME280;35714;55.708;37.478;2023-04-05T12:00:45;99787.47;;;30.95;16.84
49825;BME280;35714;55.708;37.478;2023-04-05T12:03:14;99781.88;;;30.79;17.23
49825;BME280;35714;55.708;37.478;2023-04-05T12:05:51;99788.34;;;31.15;16.77
49825;BME280;35714;55.708;37.478;2023-04-05T12:08:21;99785.72;;;31.22;17.01
49825;BME280;35714;55.708;37.478;2023-04-05T12:10:57;99790.06;;;31.55;16.34
49825;BME280;35714;55.708;37.478;2023-04-05T12:13:32;99789.84;;;31.83;16.03
49825;BME280;35714;55.708;37.478;2023-04-05T12:16:05;99782.66;;;32.06;16.12
49825;BME280;35714;55.708;37.478;2023-04-05T12:18:34;99784.63;;;32.25;15.97
49825;BME280;35714;55.708;37.478;2023-04-05T12:21:01;99785.44;;;32.48;15.75
49825;BME280;35714;55.708;37.478;2023-04-05T12:23:27;99789.88;;;32.72;15.42
49825;BME280;35714;55.708;37.478;2023-04-05T12:25:54;99785.88;;;32.73;15.52
49825;BME280;35714;55.708;37.478;2023-04-05T12:28:21;99777.72;;;32.65;15.87
49825;BME280;35714;55.708;37.478;2023-04-05T12:30:55;99783.50;;;32.76;15.51
49825;BME280;35714;55.708;37.478;2023-04-05T12:33:32;99779.22;;;32.85;14.63
49825;BME280;35714;55.708;37.478;2023-04-05T12:36:03;99789.53;;;32.78;14.88
49825;BME280;35714;55.708;37.478;2023-04-05T12:38:29;99796.53;;;32.87;14.93
49825;BME280;35714;55.708;37.478;2023-04-05T12:41:00;99790.53;;;32.89;15.02
49825;BME280;35714;55.708;37.478;2023-04-05T12:43:37;99787.38;;;32.67;15.16
49825;BME280;35714;55.708;37.478;2023-04-05T12:46:08;99789.88;;;32.26;15.06
49825;BME280;35714;55.708;37.478;2023-04-05T12:48:36;99788.09;;;32.18;15.08
49825;BME280;35714;55.708;37.478;2023-04-05T12:51:13;99787.53;;;32.32;15.54
49825;BME280;35714;55.708;37.478;2023-04-05T12:53:44;99782.75;;;32.32;15.31
49825;BME280;35714;55.708;37.478;2023-04-05T12:56:11;99780.81;;;32.36;15.46
49825;BME280;35714;55.708;37.478;2023-04-05T12:58:37;99780.56;;;32.45;14.93
49825;BME280;35714;55.708;37.478;2023-04-05T13:01:04;99781.06;;;32.51;15.27
49825;BME280;35714;55.708;37.478;2023-04-05T13:03:30;99770.84;;;32.62;14.60
49825;BME280;35714;55.708;37.478;2023-04-05T13:05:56;99774.09;;;32.64;14.58
49825;BME280;35714;55.708;37.478;2023-04-05T13:08:23;99780.44;;;32.61;15.04
49825;BME280;35714;55.708;37.478;2023-04-05T13:10:49;99779.75;;;32.45;14.82
49825;BME280;35714;55.708;37.478;2023-04-05T13:13:16;99782.03;;;32.35;15.07
49825;BME280;35714;55.708;37.478;2023-04-05T13:15:42;99772.59;;;32.47;14.59
49825;BME280;35714;55.708;37.478;2023-04-05T13:18:08;99776.19;;;32.48;14.83
49825;BME280;35714;55.708;37.478;2023-04-05T13:20:34;99778.25;;;32.51;14.78
49825;BME280;35714;55.708;37.478;2023-04-05T13:23:00;99774.25;;;32.52;14.93
49825;BME280;35714;55.708;37.478;2023-04-05T13:25:26;99777.50;;;32.54;15.21